createdAt,value
2019-02-14T00:00:58.237Z,3.40
2019-02-14T00:06:04.052Z,3.40
2019-02-14T00:11:09.088Z,3.40
2019-02-14T00:16:14.093Z,3.40
2019-02-14T00:21:19.141Z,3.30
2019-02-14T00:26:24.150Z,3.20
2019-02-14T00:31:29.153Z,3.20
2019-02-14T00:36:34.156Z,3.20
2019-02-14T00:41:39.159Z,3.20
2019-02-14T00:46:44.171Z,3.20
2019-02-14T00:51:49.165Z,3.10
2019-02-14T00:56:54.228Z,3.00
2019-02-14T01:01:59.232Z,2.90
2019-02-14T01:07:05.676Z,2.80
2019-02-14T01:12:11.396Z,2.70
2019-02-14T01:17:16.405Z,2.60
2019-02-14T01:22:21.712Z,2.50
2019-02-14T01:27:26.754Z,2.60
2019-02-14T01:32:31.772Z,2.70
2019-02-14T01:37:36.787Z,2.80
2019-02-14T01:42:41.798Z,2.80
2019-02-14T01:47:46.802Z,2.80
2019-02-14T01:52:52.037Z,2.90
2019-02-14T01:57:57.035Z,2.90
2019-02-14T02:03:02.152Z,2.80
2019-02-14T02:08:08.928Z,2.80
2019-02-14T02:13:14.102Z,2.90
2019-02-14T02:18:20.209Z,2.90
2019-02-14T02:23:25.232Z,3.00
2019-02-14T02:28:30.237Z,3.00
2019-02-14T02:33:35.250Z,3.00
2019-02-14T02:38:40.262Z,3.00
2019-02-14T02:43:45.306Z,3.10
2019-02-14T02:48:50.353Z,3.10
2019-02-14T02:53:55.364Z,3.10
2019-02-14T02:59:00.372Z,3.10
2019-02-14T03:04:05.404Z,3.10
2019-02-14T03:09:10.388Z,3.10
2019-02-14T03:14:15.391Z,3.00
2019-02-14T03:19:20.381Z,3.00
2019-02-14T03:24:25.381Z,2.90
2019-02-14T03:29:30.344Z,2.90
2019-02-14T03:34:35.347Z,2.80
2019-02-14T03:39:40.371Z,2.80
2019-02-14T03:44:45.368Z,2.80
2019-02-14T03:49:50.378Z,2.80
2019-02-14T03:54:55.368Z,2.80
2019-02-14T04:00:00.434Z,2.80
2019-02-14T04:05:05.929Z,2.70
2019-02-14T04:10:12.246Z,2.70
2019-02-14T04:15:17.260Z,2.60
2019-02-14T04:20:22.272Z,2.50
2019-02-14T04:25:27.316Z,2.40
2019-02-14T04:30:32.336Z,2.40
2019-02-14T04:35:37.346Z,2.30
2019-02-14T04:40:42.473Z,2.30
2019-02-14T04:45:47.487Z,2.20
2019-02-14T04:50:52.556Z,2.20
2019-02-14T04:55:57.577Z,2.20
2019-02-14T05:01:02.594Z,2.30
2019-02-14T05:06:07.611Z,2.40
2019-02-14T05:11:12.614Z,2.40
2019-02-14T05:16:17.650Z,2.30
2019-02-14T05:21:22.653Z,2.30
2019-02-14T05:26:27.652Z,2.10
2019-02-14T05:31:32.656Z,2.00
2019-02-14T05:36:37.701Z,1.80
2019-02-14T05:41:42.724Z,1.70
2019-02-14T05:46:49.864Z,1.60
2019-02-14T05:51:54.983Z,1.60
2019-02-14T05:56:59.998Z,1.70
2019-02-14T06:02:05.333Z,1.80
2019-02-14T06:07:10.344Z,1.90
2019-02-14T06:12:15.605Z,1.80
2019-02-14T06:17:20.622Z,1.70
2019-02-14T06:22:25.704Z,1.80
2019-02-14T06:27:30.726Z,1.80
2019-02-14T06:32:35.792Z,1.90
2019-02-14T06:37:40.825Z,1.80
2019-02-14T06:42:45.928Z,1.70
2019-02-14T06:47:50.937Z,1.70
2019-02-14T06:52:55.958Z,1.60
2019-02-14T06:58:00.959Z,1.50
2019-02-14T07:03:06.137Z,1.50
2019-02-14T07:08:11.146Z,1.40
2019-02-14T07:13:16.153Z,1.30
2019-02-14T07:18:21.167Z,1.40
2019-02-14T07:23:27.419Z,1.20
2019-02-14T07:28:34.352Z,1.20
2019-02-14T07:33:39.201Z,1.20
2019-02-14T07:38:44.197Z,1.20
2019-02-14T07:43:49.167Z,1.30
2019-02-14T07:48:54.130Z,1.40
2019-02-14T07:53:59.090Z,1.50
2019-02-14T07:59:04.065Z,1.70
2019-02-14T08:04:09.040Z,1.80
2019-02-14T08:09:14.017Z,2.00
2019-02-14T08:14:19.003Z,2.20
2019-02-14T08:19:24.000Z,2.30
2019-02-14T08:24:28.963Z,2.40
2019-02-14T08:29:33.983Z,2.40
2019-02-14T08:34:38.944Z,2.50
2019-02-14T08:39:43.933Z,2.60
2019-02-14T08:44:48.893Z,2.70
2019-02-14T08:49:53.875Z,2.90
2019-02-14T08:54:58.845Z,3.10
2019-02-14T09:00:04.228Z,3.30
2019-02-14T09:05:09.310Z,3.40
2019-02-14T09:10:14.433Z,3.60
2019-02-14T09:15:19.401Z,3.80
2019-02-14T09:20:24.356Z,4.00
2019-02-14T09:25:29.373Z,4.20
2019-02-14T09:30:34.401Z,4.40
2019-02-14T09:35:39.384Z,4.60
2019-02-14T09:40:44.349Z,4.80
2019-02-14T09:45:49.343Z,5.00
2019-02-14T09:50:54.304Z,5.10
2019-02-14T09:55:59.282Z,5.20
2019-02-14T10:01:04.257Z,5.40
2019-02-14T10:06:09.222Z,5.50
2019-02-14T10:11:14.193Z,5.60
2019-02-14T10:16:19.180Z,5.70
2019-02-14T10:21:24.147Z,5.80
2019-02-14T10:26:29.168Z,5.90
2019-02-14T10:31:34.130Z,6.00
2019-02-14T10:36:39.109Z,6.20
2019-02-14T10:41:44.070Z,6.30
2019-02-14T10:46:49.054Z,6.50
2019-02-14T10:51:54.222Z,6.60
2019-02-14T10:56:59.190Z,6.80
2019-02-14T11:02:07.076Z,6.90
2019-02-14T11:07:13.594Z,7.00
2019-02-14T11:12:18.721Z,7.20
2019-02-14T11:17:23.684Z,7.30
2019-02-14T11:22:28.748Z,7.50
2019-02-14T11:27:33.752Z,7.60
2019-02-14T11:32:38.773Z,7.60
2019-02-14T11:37:43.736Z,7.80
2019-02-14T11:42:48.704Z,7.80
2019-02-14T11:47:53.665Z,7.90
2019-02-14T11:52:59.162Z,8.10
2019-02-14T11:58:04.124Z,8.20
2019-02-14T12:03:09.175Z,8.30
2019-02-14T12:08:14.140Z,8.40
2019-02-14T12:13:19.284Z,8.50
2019-02-14T12:18:24.239Z,8.60
2019-02-14T12:23:29.207Z,8.70
2019-02-14T12:28:34.233Z,8.80
2019-02-14T12:33:39.187Z,8.90
2019-02-14T12:38:44.160Z,9.00
2019-02-14T12:43:49.139Z,9.10
2019-02-14T12:48:54.092Z,9.20
2019-02-14T12:53:59.062Z,9.40
2019-02-14T12:59:04.030Z,9.40
2019-02-14T13:04:09.000Z,9.60
2019-02-14T13:09:20.154Z,9.80
2019-02-14T13:14:21.876Z,9.70
2019-02-14T13:19:26.869Z,9.80
2019-02-14T13:24:32.277Z,9.80
2019-02-14T13:29:37.284Z,9.90
2019-02-14T13:34:42.932Z,10.00
2019-02-14T13:39:47.880Z,9.90
2019-02-14T13:44:52.890Z,10.00
2019-02-14T13:49:57.871Z,10.00
2019-02-14T13:55:02.839Z,10.10
2019-02-14T14:00:11.450Z,10.10
2019-02-14T14:05:16.436Z,10.10
2019-02-14T14:10:21.438Z,10.20
2019-02-14T14:15:26.412Z,10.10
2019-02-14T14:20:31.396Z,10.10
2019-02-14T14:25:36.366Z,10.10
2019-02-14T14:30:41.548Z,10.10
2019-02-14T14:35:46.536Z,10.20
2019-02-14T14:40:51.508Z,10.20
2019-02-14T14:46:04.241Z,10.20
2019-02-14T14:51:09.209Z,10.20
2019-02-14T14:56:14.196Z,10.00
2019-02-14T15:01:19.226Z,10.00
2019-02-14T15:06:24.194Z,9.90
2019-02-14T15:11:29.480Z,10.00
2019-02-14T15:16:34.464Z,9.90
2019-02-14T15:21:39.475Z,9.80
2019-02-14T15:26:44.480Z,9.60
2019-02-14T15:31:49.485Z,9.40
2019-02-14T15:36:54.432Z,9.20
2019-02-14T15:41:59.444Z,9.10
2019-02-14T15:47:04.399Z,9.20
2019-02-14T15:52:09.370Z,9.10
2019-02-14T15:57:16.522Z,9.00
2019-02-14T16:02:21.127Z,8.90
2019-02-14T16:07:26.087Z,8.70
2019-02-14T16:12:31.060Z,8.60
2019-02-14T16:17:37.439Z,8.40
2019-02-14T16:22:44.042Z,8.20
2019-02-14T16:27:50.550Z,7.80
2019-02-14T16:32:55.745Z,7.50
2019-02-14T16:38:00.711Z,7.40
2019-02-14T16:43:05.684Z,7.10
2019-02-14T16:48:12.944Z,6.70
2019-02-14T16:53:18.215Z,6.50
2019-02-14T16:58:42.262Z,6.10
2019-02-14T17:03:47.243Z,5.80
2019-02-14T17:08:52.204Z,5.50
2019-02-14T17:13:57.237Z,5.40
2019-02-14T17:19:02.190Z,5.20
2019-02-14T17:24:07.179Z,5.10
2019-02-14T17:29:12.199Z,4.90
2019-02-14T17:34:17.163Z,4.70
2019-02-14T17:39:22.179Z,4.40
2019-02-14T17:44:27.171Z,4.30
2019-02-14T17:49:32.140Z,4.10
2019-02-14T17:54:37.104Z,4.00
2019-02-14T17:59:42.077Z,4.00
2019-02-14T18:04:47.056Z,3.90
2019-02-14T18:09:52.024Z,3.80
2019-02-14T18:14:56.999Z,3.80
2019-02-14T18:20:02.136Z,3.60
2019-02-14T18:25:08.315Z,3.50
2019-02-14T18:30:15.235Z,3.40
2019-02-14T18:35:20.152Z,3.40
2019-02-14T18:40:25.133Z,3.30
2019-02-14T18:45:30.107Z,3.30
2019-02-14T18:50:35.078Z,3.30
2019-02-14T18:55:40.036Z,3.20
2019-02-14T19:00:45.039Z,3.00
2019-02-14T19:05:50.020Z,2.90
2019-02-14T19:10:55.060Z,2.80
2019-02-14T19:16:00.032Z,2.70
2019-02-14T19:21:05.029Z,2.50
2019-02-14T19:26:09.997Z,2.50
2019-02-14T19:31:15.131Z,2.40
2019-02-14T19:36:20.078Z,2.40
2019-02-14T19:41:25.655Z,2.30
2019-02-14T19:46:30.942Z,2.20
2019-02-14T19:51:35.912Z,2.20
2019-02-14T19:56:40.936Z,2.20
2019-02-14T20:01:45.925Z,2.10
2019-02-14T20:06:51.119Z,2.00
2019-02-14T20:11:56.071Z,2.00
2019-02-14T20:17:01.039Z,1.90
2019-02-14T20:22:06.036Z,1.80
2019-02-14T20:27:11.052Z,1.70
2019-02-14T20:32:16.063Z,1.70
2019-02-14T20:37:21.071Z,1.60
2019-02-14T20:42:26.123Z,1.50
2019-02-14T20:47:31.118Z,1.50
2019-02-14T20:52:36.125Z,1.40
2019-02-14T20:57:41.096Z,1.40
2019-02-14T21:02:46.106Z,1.40
2019-02-14T21:07:51.085Z,1.30
2019-02-14T21:12:56.150Z,1.30
2019-02-14T21:18:01.131Z,1.10
2019-02-14T21:23:06.456Z,1.10
2019-02-14T21:28:11.781Z,1.10
2019-02-14T21:33:17.000Z,1.10
2019-02-14T21:38:21.952Z,1.00
2019-02-14T21:43:27.085Z,1.00
2019-02-14T21:48:32.170Z,1.00
2019-02-14T21:53:37.164Z,1.00
2019-02-14T21:58:42.167Z,1.00
2019-02-14T22:03:47.384Z,1.00
2019-02-14T22:08:52.431Z,0.90
2019-02-14T22:13:57.372Z,0.90
2019-02-14T22:19:02.335Z,0.90
2019-02-14T22:24:07.323Z,0.90
2019-02-14T22:29:12.304Z,0.90
2019-02-14T22:34:17.391Z,0.90
2019-02-14T22:39:22.356Z,0.90
2019-02-14T22:44:27.377Z,0.90
2019-02-14T22:49:33.098Z,0.90
2019-02-14T22:54:38.272Z,0.80
2019-02-14T22:59:43.543Z,0.80
2019-02-14T23:04:49.770Z,0.80
2019-02-14T23:09:55.541Z,0.60
2019-02-14T23:15:01.103Z,0.50
2019-02-14T23:20:07.026Z,0.50
2019-02-14T23:25:12.009Z,0.40
2019-02-14T23:30:17.042Z,0.40
2019-02-14T23:35:22.212Z,0.30
2019-02-14T23:40:28.644Z,0.40
2019-02-14T23:45:33.927Z,0.30
2019-02-14T23:50:38.886Z,0.20
2019-02-14T23:55:45.771Z,0.20
